Time;durP1;ratioP1;P1;durP2;ratioP2;P2;SDS_P1;SDS_P2;PMS_P1;PMS_P2;Temp;Humidity;BMP_temperature;BMP_pressure;BME280_temperature;BME280_humidity;BME280_pressure;Samples;Min_cycle;Max_cycle;Signal;HPM_P1;HPM_P2
2021/11/25 00:09:43;;;;;;;39.17;19.40;;;;;;;-0.59;84.19;101567.03;30986518;28;20046;-72
2021/11/25 00:24:45;;;;;;;27.40;14.23;;;;;;;-0.67;82.16;101565.13;30946339;28;20054;-72
2021/11/25 00:39:47;;;;;;;23.20;11.17;;;;;;;-0.73;86.49;101556.47;30935381;28;20089;-75
2021/11/25 00:54:49;;;;;;;28.97;11.03;;;;;;;-0.76;87.42;101542.97;30965766;28;20050;-73
2021/11/25 01:09:51;;;;;;;21.97;9.40;;;;;;;-0.80;89.41;101531.34;30961025;28;20453;-74
2021/11/25 01:24:53;;;;;;;19.33;9.70;;;;;;;-0.78;90.35;101537.16;30974943;28;20172;-72
2021/11/25 01:39:56;;;;;;;23.60;11.30;;;;;;;-0.86;90.07;101533.34;30957891;28;20058;-75
2021/11/25 01:54:58;;;;;;;17.20;9.17;;;;;;;-0.96;89.41;101535.50;30971911;28;20050;-73
2021/11/25 02:10:00;;;;;;;18.40;10.17;;;;;;;-0.97;89.56;101547.25;30998198;28;20042;-74
2021/11/25 02:25:03;;;;;;;25.00;12.03;;;;;;;-1.00;88.88;101547.84;30971357;28;20050;-74
2021/11/25 02:40:27;;;;;;;21.37;10.60;;;;;;;-1.11;89.69;101542.78;30979356;28;20522;-73
2021/11/25 02:55:29;;;;;;;25.73;13.37;;;;;;;-1.28;90.15;101545.31;30981272;28;20512;-72
2021/11/25 03:10:42;;;;;;;25.33;11.90;;;;;;;-1.06;90.98;101550.66;30974459;28;20053;-73
2021/11/25 03:25:45;;;;;;;21.27;9.97;;;;;;;-0.95;90.36;101535.19;30982525;28;20088;-73
2021/11/25 03:40:49;;;;;;;20.83;10.87;;;;;;;-0.85;94.68;101510.13;30982289;28;20058;-72
2021/11/25 03:55:52;;;;;;;23.83;10.63;;;;;;;-0.91;91.86;101514.81;30984657;28;20051;-72
2021/11/25 04:10:54;;;;;;;16.07;10.03;;;;;;;-0.94;92.32;101522.63;30972581;28;20046;-73
2021/11/25 04:25:56;;;;;;;22.43;11.10;;;;;;;-0.80;91.71;101532.13;30972663;28;20056;-73
2021/11/25 04:41:01;;;;;;;21.77;10.50;;;;;;;-0.82;90.77;101538.84;30956634;28;20587;-74
2021/11/25 04:56:03;;;;;;;19.30;9.50;;;;;;;-0.78;89.82;101539.81;30941642;28;20069;-74
2021/11/25 05:11:05;;;;;;;26.03;12.87;;;;;;;-0.73;91.02;101564.47;30948123;28;20050;-73
2021/11/25 05:26:07;;;;;;;23.90;11.90;;;;;;;-0.75;89.79;101576.53;30971948;28;20050;-73
2021/11/25 05:41:11;;;;;;;20.83;10.43;;;;;;;-0.21;88.56;101559.31;30965295;28;20135;-73
2021/11/25 05:56:14;;;;;;;31.63;16.37;;;;;;;1.87;79.69;101570.56;30964525;28;20194;-73
2021/11/25 06:11:17;;;;;;;15.53;8.30;;;;;;;3.76;71.70;101574.16;30955213;28;20064;-73
2021/11/25 06:26:19;;;;;;;19.63;9.23;;;;;;;5.07;68.17;101581.75;30973014;28;20050;-75
2021/11/25 06:41:21;;;;;;;21.50;9.63;;;;;;;6.10;61.74;101578.88;30972291;28;20058;-76
2021/11/25 06:56:23;;;;;;;17.03;8.03;;;;;;;7.17;57.57;101571.75;30972675;28;20054;-76
2021/11/25 07:11:25;;;;;;;20.80;9.70;;;;;;;8.02;56.46;101566.16;30987211;28;20112;-75
2021/11/25 07:26:27;;;;;;;17.50;10.10;;;;;;;9.06;51.05;101569.75;30994659;28;20546;-75
2021/11/25 07:41:29;;;;;;;22.73;9.70;;;;;;;9.66;49.83;101558.66;31001528;28;20058;-75
2021/11/25 07:56:31;;;;;;;18.33;9.23;;;;;;;10.45;47.82;101549.81;30978873;28;20051;-74
2021/11/25 08:11:33;;;;;;;14.47;8.23;;;;;;;10.59;45.74;101549.88;30986173;28;20193;-74
2021/11/25 08:26:35;;;;;;;16.70;8.50;;;;;;;10.75;46.51;101541.38;30988487;28;20093;-75
2021/11/25 08:41:37;;;;;;;15.03;7.43;;;;;;;10.67;45.31;101533.59;30977505;28;20050;-75
2021/11/25 08:56:40;;;;;;;17.87;7.83;;;;;;;11.65;43.13;101515.00;30968809;28;20143;-74
2021/11/25 09:11:42;;;;;;;11.53;7.30;;;;;;;11.06;43.47;101501.06;30985719;28;20053;-72
2021/11/25 09:26:44;;;;;;;12.23;6.57;;;;;;;11.84;41.88;101496.34;30987221;28;20137;-75
2021/11/25 09:41:47;;;;;;;13.93;8.53;;;;;;;12.22;40.86;101488.44;30971217;28;20065;-75
2021/11/25 09:56:51;;;;;;;11.87;6.57;;;;;;;11.67;39.64;101477.31;30980907;28;20058;-74
2021/11/25 10:11:53;;;;;;;14.53;6.27;;;;;;;11.41;39.33;101457.53;30984407;28;20834;-75
2021/11/25 10:26:55;;;;;;;11.63;5.33;;;;;;;11.97;40.02;101434.13;31007058;28;20062;-73
2021/11/25 10:42:00;;;;;;;10.30;6.00;;;;;;;12.13;39.66;101420.03;30977353;28;20060;-74
2021/11/25 10:57:06;;;;;;;9.77;4.47;;;;;;;11.43;38.42;101406.28;30978680;28;20477;-74
2021/11/25 11:12:32;;;;;;;8.07;3.93;;;;;;;11.35;36.77;101398.50;31001590;28;20492;-76
2021/11/25 11:27:34;;;;;;;10.03;4.63;;;;;;;10.63;39.27;101378.03;30984041;28;20058;-73
2021/11/25 11:42:37;;;;;;;14.70;5.93;;;;;;;10.85;39.63;101371.44;31001571;28;20565;-74
2021/11/25 11:57:41;;;;;;;9.50;4.97;;;;;;;11.68;37.00;101354.53;30973750;28;20055;-74
2021/11/25 12:13:05;;;;;;;7.97;4.67;;;;;;;12.14;34.98;101356.25;30979347;28;20054;-75
2021/11/25 12:28:17;;;;;;;13.73;5.50;;;;;;;10.47;38.37;101353.97;30987424;28;20085;-74
2021/11/25 12:43:25;;;;;;;12.00;5.53;;;;;;;6.57;45.51;101359.41;30989289;28;20052;-73
2021/11/25 12:58:37;;;;;;;8.97;5.50;;;;;;;5.07;50.96;101356.44;30982239;28;20052;-75
2021/11/25 13:13:39;;;;;;;10.70;5.23;;;;;;;4.42;51.69;101353.34;30999067;28;20060;-76
2021/11/25 13:28:41;;;;;;;13.87;5.67;;;;;;;4.31;54.19;101330.78;30995838;28;20069;-74
2021/11/25 13:43:58;;;;;;;16.47;6.77;;;;;;;3.91;56.09;101316.69;30974957;28;20057;-74
2021/11/25 13:59:02;;;;;;;14.87;7.03;;;;;;;3.67;55.33;101312.97;30977054;28;20039;-74
2021/11/25 14:14:09;;;;;;;20.70;9.50;;;;;;;3.30;57.58;101311.53;30985519;28;20060;-74
2021/11/25 14:44:34;;;;;;;21.20;7.20;;;;;;;3.28;63.15;101303.03;30977998;28;20059;-75
2021/11/25 14:59:37;;;;;;;13.17;6.67;;;;;;;3.10;59.48;101291.78;30968921;28;20047;-74
2021/11/25 15:14:41;;;;;;;14.70;7.13;;;;;;;2.76;60.63;101295.75;31004752;28;20492;-76
2021/11/25 15:29:43;;;;;;;23.70;12.20;;;;;;;2.30;63.40;101292.38;30991730;28;20050;-74
2021/11/25 15:44:50;;;;;;;21.27;11.37;;;;;;;1.77;66.76;101300.50;30984929;28;20392;-76
2021/11/25 15:59:52;;;;;;;26.87;13.27;;;;;;;1.56;68.08;101295.16;30981021;28;20065;-76
2021/11/25 16:14:55;;;;;;;30.67;16.07;;;;;;;1.53;72.28;101288.56;30984410;28;20495;-75
2021/11/25 16:29:58;;;;;;;39.73;17.93;;;;;;;1.49;71.96;101293.00;30978670;28;20069;-76
2021/11/25 16:45:00;;;;;;;23.57;11.63;;;;;;;1.48;72.92;101291.44;30996172;28;20060;-75
2021/11/25 17:00:07;;;;;;;36.30;21.10;;;;;;;1.54;72.46;101282.13;30969065;28;20138;-75
2021/11/25 17:15:11;;;;;;;35.03;18.57;;;;;;;1.66;72.26;101273.34;30988543;28;20050;-76
2021/11/25 17:30:14;;;;;;;24.10;11.33;;;;;;;1.73;73.48;101264.78;30987655;28;20066;-79
2021/11/25 17:45:16;;;;;;;13.37;7.87;;;;;;;1.79;73.09;101247.41;30983813;28;20387;-75
2021/11/25 18:00:20;;;;;;;14.97;7.00;;;;;;;1.91;73.07;101244.75;30988217;28;20073;-78
2021/11/25 18:15:23;;;;;;;17.80;8.47;;;;;;;1.76;74.24;101215.94;30962921;28;20494;-76
2021/11/25 18:30:25;;;;;;;14.13;8.37;;;;;;;1.71;75.26;101211.56;30960697;28;20142;-75
2021/11/25 18:45:27;;;;;;;17.47;8.67;;;;;;;1.48;76.29;101227.22;30981298;28;20061;-77
2021/11/25 19:00:29;;;;;;;14.47;8.13;;;;;;;1.19;78.64;101216.63;30981012;28;20608;-77
2021/11/25 19:15:31;;;;;;;11.77;6.97;;;;;;;1.31;80.49;101206.00;30971230;28;20058;-77
2021/11/25 19:30:33;;;;;;;14.30;7.27;;;;;;;1.11;80.10;101206.78;30988201;28;20077;-74
2021/11/25 19:45:36;;;;;;;11.07;5.77;;;;;;;0.86;82.94;101206.66;30978737;28;20061;-75
2021/11/25 20:00:41;;;;;;;14.57;6.90;;;;;;;0.66;82.35;101196.75;30933660;28;20496;-75
2021/11/25 20:15:48;;;;;;;10.40;6.27;;;;;;;0.66;84.12;101199.41;30937040;28;20128;-75
2021/11/25 20:30:51;;;;;;;13.90;6.77;;;;;;;0.76;82.56;101190.22;30982576;28;20056;-75
2021/11/25 20:45:54;;;;;;;14.40;6.97;;;;;;;0.64;83.50;101190.94;30943682;28;20046;-78
2021/11/25 21:00:56;;;;;;;15.13;6.83;;;;;;;0.58;83.69;101195.69;30956586;28;20050;-74
2021/11/25 21:15:58;;;;;;;12.30;6.40;;;;;;;0.27;83.58;101176.53;30973817;28;20138;-77
2021/11/25 21:31:01;;;;;;;14.37;7.90;;;;;;;0.03;86.68;101163.75;30944969;28;20137;-79
2021/11/25 21:46:03;;;;;;;9.77;6.17;;;;;;;0.08;84.58;101166.25;30944012;28;20065;-79
2021/11/25 22:01:11;;;;;;;13.37;7.97;;;;;;;-0.23;86.02;101155.06;30978526;28;20051;-78
2021/11/25 22:16:14;;;;;;;16.40;7.60;;;;;;;-0.40;86.28;101139.91;30939138;28;20054;-76
2021/11/25 22:31:16;;;;;;;22.17;8.63;;;;;;;-0.26;87.86;101123.72;30950543;28;20978;-77
2021/11/25 22:46:18;;;;;;;15.33;8.03;;;;;;;-0.32;87.63;101119.66;31009868;28;20058;-77
2021/11/25 23:01:21;;;;;;;14.00;7.37;;;;;;;-0.38;87.45;101114.50;31038044;28;20062;-77
2021/11/25 23:16:23;;;;;;;14.50;8.07;;;;;;;-0.32;87.36;101096.44;31017897;28;20427;-76
2021/11/25 23:31:26;;;;;;;16.80;8.10;;;;;;;-0.47;87.24;101103.06;30983210;28;20057;-77
2021/11/25 23:46:30;;;;;;;15.13;7.70;;;;;;;-0.52;88.44;101089.91;31000667;28;20093;-76
